Cielo Di Gaspesie — D5AQ2 — position and weather

sailwx.info

Track history (hours):
 
Tides and Currents Weather Stations Pressure Air Temp Water Temp Dewpoint Dewpoint Depression Visibility Wind Speed Wind Dir Waves Ship Positions

Cielo Di Gaspesie

Last reported at 2018-May-26 03:55 UTC. Time now 2018-May-26 04:18 UTC.
Position N 41°48' W 071°23'.

Length 183 m; draft 9.3 m.

Type: Cargo ship. MMSI: 636015421.

Date/timePositionNaut miles runAvg speedWind from/ knotsBaromVisibWave heightAir tempDewpointWater temp
2018-May-26 03:55N 41°48' W 071°23'0 0.0
2018-May-26 03:25N 41°48' W 071°23'0 0.0
2018-May-26 02:55N 41°48' W 071°23'0 0.0
2018-May-26 02:19N 41°48' W 071°23'0 0.0
2018-May-26 01:55N 41°48' W 071°23'0 0.0
2018-May-26 01:19N 41°48' W 071°23'0 0.0
2018-May-26 00:55N 41°48' W 071°23'0 0.0
2018-May-26 00:13N 41°48' W 071°23'0 0.0
2018-May-25 23:43N 41°48' W 071°23'0 0.0
2018-May-25 23:19N 41°48' W 071°23'0 0.0
2018-May-25 22:55N 41°48' W 071°23'0 0.0
2018-May-25 22:25N 41°48' W 071°23'0 0.0
2018-May-25 21:55N 41°48' W 071°23'0 0.0
2018-May-25 20:37N 41°48' W 071°23'0 0.0
2018-May-25 20:25N 41°48' W 071°23'0 0.0
2018-May-25 19:55N 41°48' W 071°23'0 0.0
2018-May-25 19:07N 41°48' W 071°23'0 0.0
2018-May-25 18:54N 41°48' W 071°23'0 0.0
2018-May-25 18:25N 41°48' W 071°23'0 0.0
2018-May-25 17:48N 41°48' W 071°23'0 0.0
2018-May-25 17:25N 41°48' W 071°23'0 0.0
2018-May-25 17:00N 41°48' W 071°23'0 0.3
2018-May-25 16:29N 41°48' W 071°23'3 6.9
2018-May-25 16:00N 41°44' W 071°22'510.1
2018-May-25 15:30N 41°40' W 071°19'612.0
2018-May-25 15:00N 41°34' W 071°19'24 9.9
2018-May-25 12:36N 41°10' W 071°22'110.7
2018-May-25 12:28N 41°09' W 071°22'511.9
2018-May-25 12:00N 41°04' W 071°18'812.4
2018-May-25 11:21N 40°57' W 071°13'412.5
2018-May-25 11:00N 40°53' W 071°12'612.8
2018-May-25 10:30N 40°47' W 071°09'4 8.3
2018-May-25 09:59N 40°43' W 071°07'5 9.2
2018-May-25 09:26N 40°39' W 071°03'512.0
2018-May-25 08:59N 40°39' W 070°56'612.1
2018-May-25 08:30N 40°38' W 070°48'612.3
2018-May-25 08:00N 40°36' W 070°40'612.3
2018-May-25 07:31N 40°36' W 070°32'612.4
2018-May-25 07:00N 40°35' W 070°24'612.8
2018-May-25 06:30N 40°33' W 070°16'612.8
2018-May-25 06:01N 40°33' W 070°08'912.7
2018-May-25 05:20N 40°34' W 069°56'412.9
2018-May-25 05:00N 40°34' W 069°51'  
2018-May-16 12:18N 41°27' W 071°23'411.2
2018-May-16 11:56N 41°31' W 071°21'713.7
2018-May-16 11:27N 41°37' W 071°18'613.2
2018-May-16 11:00N 41°43' W 071°20'511.1
2018-May-16 10:30N 41°48' W 071°23'0 0.4
2018-May-16 09:55N 41°48' W 071°23'0 0.0
2018-May-16 09:19N 41°48' W 071°23'0 0.0
2018-May-16 08:55N 41°48' W 071°23'0 0.0
2018-May-16 08:19N 41°48' W 071°23'0 0.0
2018-May-16 07:55N 41°48' W 071°23'0 0.0
2018-May-16 07:19N 41°48' W 071°23'0 0.0
2018-May-16 06:55N 41°48' W 071°23'0 0.0
2018-May-16 06:25N 41°48' W 071°23'0 0.0
2018-May-16 05:43N 41°48' W 071°23'  
Track history (hours):
 
Tides and Currents Weather Stations Pressure Air Temp Water Temp Dewpoint Dewpoint Depression Visibility Wind Speed Wind Dir Waves Ship Positions

Cielo Di Gaspesie

Last reported at 2018-May-26 03:55 UTC. Time now 2018-May-26 04:18 UTC.
Position N 41°48' W 071°23'.

Length 183 m; draft 9.3 m.

Type: Cargo ship. MMSI: 636015421.

Date/timePositionNaut miles runAvg speedWind from/ knotsBaromVisibWave heightAir tempDewpointWater temp
2018-May-26 03:55N 41°48' W 071°23'0 0.0
2018-May-26 03:25N 41°48' W 071°23'0 0.0
2018-May-26 02:55N 41°48' W 071°23'0 0.0
2018-May-26 02:19N 41°48' W 071°23'0 0.0
2018-May-26 01:55N 41°48' W 071°23'0 0.0
2018-May-26 01:19N 41°48' W 071°23'0 0.0
2018-May-26 00:55N 41°48' W 071°23'0 0.0
2018-May-26 00:13N 41°48' W 071°23'0 0.0
2018-May-25 23:43N 41°48' W 071°23'0 0.0
2018-May-25 23:19N 41°48' W 071°23'0 0.0
2018-May-25 22:55N 41°48' W 071°23'0 0.0
2018-May-25 22:25N 41°48' W 071°23'0 0.0
2018-May-25 21:55N 41°48' W 071°23'0 0.0
2018-May-25 20:37N 41°48' W 071°23'0 0.0
2018-May-25 20:25N 41°48' W 071°23'0 0.0
2018-May-25 19:55N 41°48' W 071°23'0 0.0
2018-May-25 19:07N 41°48' W 071°23'0 0.0
2018-May-25 18:54N 41°48' W 071°23'0 0.0
2018-May-25 18:25N 41°48' W 071°23'0 0.0
2018-May-25 17:48N 41°48' W 071°23'0 0.0
2018-May-25 17:25N 41°48' W 071°23'0 0.0
2018-May-25 17:00N 41°48' W 071°23'0 0.3
2018-May-25 16:29N 41°48' W 071°23'3 6.9
2018-May-25 16:00N 41°44' W 071°22'510.1
2018-May-25 15:30N 41°40' W 071°19'612.0
2018-May-25 15:00N 41°34' W 071°19'24 9.9
2018-May-25 12:36N 41°10' W 071°22'110.7
2018-May-25 12:28N 41°09' W 071°22'511.9
2018-May-25 12:00N 41°04' W 071°18'812.4
2018-May-25 11:21N 40°57' W 071°13'412.5
2018-May-25 11:00N 40°53' W 071°12'612.8
2018-May-25 10:30N 40°47' W 071°09'4 8.3
2018-May-25 09:59N 40°43' W 071°07'5 9.2
2018-May-25 09:26N 40°39' W 071°03'512.0
2018-May-25 08:59N 40°39' W 070°56'612.1
2018-May-25 08:30N 40°38' W 070°48'612.3
2018-May-25 08:00N 40°36' W 070°40'612.3
2018-May-25 07:31N 40°36' W 070°32'612.4
2018-May-25 07:00N 40°35' W 070°24'612.8
2018-May-25 06:30N 40°33' W 070°16'612.8
2018-May-25 06:01N 40°33' W 070°08'912.7
2018-May-25 05:20N 40°34' W 069°56'412.9
2018-May-25 05:00N 40°34' W 069°51'  
2018-May-16 12:18N 41°27' W 071°23'411.2
2018-May-16 11:56N 41°31' W 071°21'713.7
2018-May-16 11:27N 41°37' W 071°18'613.2
2018-May-16 11:00N 41°43' W 071°20'511.1
2018-May-16 10:30N 41°48' W 071°23'0 0.4
2018-May-16 09:55N 41°48' W 071°23'0 0.0
2018-May-16 09:19N 41°48' W 071°23'0 0.0
2018-May-16 08:55N 41°48' W 071°23'0 0.0
2018-May-16 08:19N 41°48' W 071°23'0 0.0
2018-May-16 07:55N 41°48' W 071°23'0 0.0
2018-May-16 07:19N 41°48' W 071°23'0 0.0
2018-May-16 06:55N 41°48' W 071°23'0 0.0
2018-May-16 06:25N 41°48' W 071°23'0 0.0
2018-May-16 05:43N 41°48' W 071°23'  

Dump ship's entire track history